createdAt,value
2024-05-09T00:04:29.197Z,30
2024-05-09T00:09:41.953Z,26
2024-05-09T00:14:54.407Z,26
2024-05-09T00:20:07.100Z,18
2024-05-09T00:25:19.592Z,21
2024-05-09T00:30:32.198Z,27
2024-05-09T00:35:44.822Z,27
2024-05-09T00:40:57.289Z,31
2024-05-09T00:46:09.818Z,26
2024-05-09T00:51:22.330Z,24
2024-05-09T00:56:35.249Z,23
2024-05-09T01:01:47.950Z,23
2024-05-09T01:07:00.445Z,25
2024-05-09T01:12:13.166Z,29
2024-05-09T01:17:25.749Z,26
2024-05-09T01:22:38.256Z,22
2024-05-09T01:27:50.898Z,28
2024-05-09T01:33:03.324Z,34
2024-05-09T01:38:15.949Z,28
2024-05-09T01:43:28.361Z,27
2024-05-09T01:48:41.163Z,28
2024-05-09T01:53:53.693Z,26
2024-05-09T01:59:06.226Z,26
2024-05-09T02:04:18.917Z,22
2024-05-09T02:09:31.330Z,22
2024-05-09T02:14:43.060Z,22
2024-05-09T02:19:55.543Z,22
2024-05-09T02:25:08.306Z,28
2024-05-09T02:30:26.892Z,24
2024-05-09T02:35:39.589Z,21
2024-05-09T02:40:52.450Z,23
2024-05-09T02:46:04.981Z,22
2024-05-09T02:51:17.567Z,22
2024-05-09T02:56:30.123Z,22
2024-05-09T03:01:42.702Z,24
2024-05-09T03:06:55.334Z,27
2024-05-09T03:12:08.086Z,22
2024-05-09T03:17:20.716Z,28
2024-05-09T03:22:33.320Z,34
2024-05-09T03:27:45.843Z,29
2024-05-09T03:32:58.464Z,28
2024-05-09T03:38:11.024Z,28
2024-05-09T03:43:23.555Z,25
2024-05-09T03:48:36.144Z,27
2024-05-09T03:53:48.755Z,29
2024-05-09T03:59:01.379Z,24
2024-05-09T04:04:14.009Z,27
2024-05-09T04:09:26.534Z,24
2024-05-09T04:14:39.046Z,30
2024-05-09T04:19:51.754Z,28
2024-05-09T04:25:04.386Z,24
2024-05-09T04:30:16.932Z,25
2024-05-09T04:35:29.606Z,26
2024-05-09T04:40:42.195Z,24
2024-05-09T04:45:54.781Z,24
2024-05-09T04:51:07.440Z,27
2024-05-09T04:56:20.089Z,29
2024-05-09T05:01:32.705Z,30
2024-05-09T05:06:45.255Z,30
2024-05-09T05:11:57.888Z,24
2024-05-09T05:17:09.457Z,24
2024-05-09T05:22:22.215Z,26
2024-05-09T05:27:34.751Z,27
2024-05-09T05:32:47.436Z,25
2024-05-09T05:38:00.080Z,33
2024-05-09T05:43:12.753Z,34
2024-05-09T05:48:25.545Z,27
2024-05-09T05:53:38.305Z,30
2024-05-09T05:58:51.021Z,26
2024-05-09T06:04:03.609Z,30
2024-05-09T06:09:16.414Z,32
2024-05-09T06:14:29.278Z,36
2024-05-09T06:19:42.048Z,35
2024-05-09T06:24:54.884Z,38
2024-05-09T06:30:07.686Z,35
2024-05-09T06:35:20.302Z,31
2024-05-09T06:40:33.117Z,28
2024-05-09T06:45:46.051Z,33
2024-05-09T06:50:58.848Z,32
2024-05-09T06:56:11.597Z,32
2024-05-09T07:01:24.166Z,34
2024-05-09T07:06:36.973Z,30
2024-05-09T07:11:49.424Z,28
2024-05-09T07:17:02.272Z,21
2024-05-09T07:22:15.221Z,18
2024-05-09T07:27:27.954Z,29
2024-05-09T07:32:40.449Z,25
2024-05-09T07:37:53.152Z,34
2024-05-09T07:43:05.682Z,39
2024-05-09T07:48:18.272Z,25
2024-05-09T07:53:30.843Z,27
2024-05-09T07:58:43.664Z,24
2024-05-09T08:03:55.172Z,28
2024-05-09T08:09:08.010Z,33
2024-05-09T08:14:20.383Z,29
2024-05-09T08:19:33.065Z,51
2024-05-09T08:24:45.691Z,38
2024-05-09T08:29:58.279Z,32
2024-05-09T08:35:10.991Z,32
2024-05-09T08:40:23.571Z,32
2024-05-09T08:45:36.207Z,30
2024-05-09T08:50:48.844Z,44
2024-05-09T08:56:01.405Z,33
2024-05-09T09:01:14.088Z,29
2024-05-09T09:06:26.742Z,32
2024-05-09T09:11:39.230Z,32
2024-05-09T09:16:51.724Z,35
2024-05-09T09:22:04.167Z,55
2024-05-09T09:27:16.674Z,49
2024-05-09T09:32:29.541Z,35
2024-05-09T09:37:42.071Z,42
2024-05-09T09:42:54.347Z,32
2024-05-09T09:48:06.881Z,37
2024-05-09T09:53:19.596Z,40
2024-05-09T09:58:32.218Z,31
2024-05-09T10:03:44.843Z,36
2024-05-09T10:08:57.241Z,50
2024-05-09T10:14:09.484Z,41
2024-05-09T10:19:21.912Z,39
2024-05-09T10:24:34.220Z,27
2024-05-09T10:29:46.617Z,29
2024-05-09T10:34:59.355Z,23
2024-05-09T10:40:11.948Z,24
2024-05-09T10:45:24.187Z,31
2024-05-09T10:50:36.930Z,34
2024-05-09T10:55:48.464Z,41
2024-05-09T11:01:00.966Z,36
2024-05-09T11:06:13.627Z,40
2024-05-09T11:11:32.366Z,39
2024-05-09T11:16:44.818Z,41
2024-05-09T11:21:57.303Z,41
2024-05-09T11:27:10.069Z,46
2024-05-09T11:32:22.549Z,47
2024-05-09T11:37:35.343Z,52
2024-05-09T11:42:48.138Z,47
2024-05-09T11:48:00.558Z,45
2024-05-09T11:53:13.134Z,49
2024-05-09T11:58:25.850Z,63
2024-05-09T12:03:38.319Z,59
2024-05-09T12:08:51.033Z,52
2024-05-09T12:14:03.472Z,52
2024-05-09T12:19:15.892Z,54
2024-05-09T12:24:28.347Z,69
2024-05-09T12:29:40.821Z,66
2024-05-09T12:34:53.415Z,50
2024-05-09T12:40:06.079Z,68
2024-05-09T12:45:18.648Z,80
2024-05-09T12:50:31.082Z,57
2024-05-09T12:55:43.538Z,67
2024-05-09T13:00:56.103Z,69
2024-05-09T13:06:08.292Z,68
2024-05-09T13:11:20.820Z,98
2024-05-09T13:16:33.143Z,80
2024-05-09T13:21:45.526Z,98
2024-05-09T13:26:57.846Z,92
2024-05-09T13:32:10.382Z,83
2024-05-09T13:37:22.902Z,97
2024-05-09T13:42:35.367Z,102
2024-05-09T13:47:47.999Z,107
2024-05-09T13:53:00.574Z,87
2024-05-09T13:58:11.982Z,74
2024-05-09T14:03:24.582Z,79
2024-05-09T14:08:37.045Z,73
2024-05-09T14:13:49.615Z,84
2024-05-09T14:19:02.231Z,90
2024-05-09T14:24:14.814Z,78
2024-05-09T14:29:27.319Z,64
2024-05-09T14:34:39.920Z,75
2024-05-09T14:39:52.420Z,55
2024-05-09T14:45:04.916Z,61
2024-05-09T14:50:17.582Z,67
2024-05-09T14:55:30.120Z,80
2024-05-09T15:00:42.709Z,68
2024-05-09T15:05:55.261Z,66
2024-05-09T15:11:07.768Z,77
2024-05-09T15:16:20.490Z,65
2024-05-09T15:21:33.187Z,57
2024-05-09T15:26:45.739Z,51
2024-05-09T15:31:58.313Z,58
2024-05-09T15:37:10.831Z,56
2024-05-09T15:42:23.424Z,57
2024-05-09T15:47:35.981Z,59
2024-05-09T15:52:48.668Z,58
2024-05-09T15:58:01.246Z,59
2024-05-09T16:03:13.993Z,64
2024-05-09T16:08:26.573Z,48
2024-05-09T16:13:39.181Z,61
2024-05-09T16:18:51.728Z,52
2024-05-09T16:24:04.195Z,55
2024-05-09T16:29:16.849Z,53
2024-05-09T16:34:29.528Z,35
2024-05-09T16:39:42.029Z,52
2024-05-09T16:44:53.625Z,50
2024-05-09T16:50:06.205Z,50
2024-05-09T16:55:18.748Z,47
2024-05-09T17:00:31.323Z,54
2024-05-09T17:05:43.877Z,64
2024-05-09T17:10:56.467Z,58
2024-05-09T17:16:09.087Z,54
2024-05-09T17:21:21.650Z,67
2024-05-09T17:26:34.198Z,59
2024-05-09T17:31:46.794Z,54
2024-05-09T17:36:59.286Z,45
2024-05-09T17:42:11.881Z,49
2024-05-09T17:47:24.573Z,48
2024-05-09T17:52:37.100Z,56
2024-05-09T17:57:49.634Z,59
2024-05-09T18:03:02.108Z,62
2024-05-09T18:08:14.626Z,66
2024-05-09T18:13:27.237Z,68
2024-05-09T18:18:39.789Z,56
2024-05-09T18:23:52.277Z,70
2024-05-09T18:29:04.903Z,52
2024-05-09T18:34:17.399Z,55
2024-05-09T18:39:30.007Z,57
2024-05-09T18:44:42.609Z,50
2024-05-09T18:49:55.297Z,36
2024-05-09T18:55:07.844Z,32
2024-05-09T19:00:20.241Z,43
2024-05-09T19:05:32.606Z,36
2024-05-09T19:10:45.168Z,39
2024-05-09T19:15:58.549Z,42
2024-05-09T19:21:10.977Z,31
2024-05-09T19:26:23.548Z,32
2024-05-09T19:31:36.166Z,24
2024-05-09T19:36:47.652Z,22
2024-05-09T19:42:00.259Z,28
2024-05-09T19:47:12.919Z,39
2024-05-09T19:52:31.576Z,39
2024-05-09T19:57:44.141Z,44
2024-05-09T20:02:56.715Z,25
2024-05-09T20:13:22.110Z,28
2024-05-09T20:18:34.697Z,29
2024-05-09T20:23:47.318Z,23
2024-05-09T20:28:59.832Z,26
2024-05-09T20:34:12.240Z,28
2024-05-09T20:39:24.821Z,23
2024-05-09T20:44:37.305Z,22
2024-05-09T20:49:49.761Z,24
2024-05-09T20:55:02.206Z,20
2024-05-09T21:00:14.773Z,20
2024-05-09T21:05:27.417Z,24
2024-05-09T21:10:40.100Z,23
2024-05-09T21:15:52.792Z,20
2024-05-09T21:21:05.357Z,20
2024-05-09T21:26:17.850Z,18
2024-05-09T21:31:30.508Z,18
2024-05-09T21:36:43.088Z,17
2024-05-09T21:41:55.857Z,15
2024-05-09T21:47:08.301Z,16
2024-05-09T21:52:20.917Z,16
2024-05-09T21:57:33.624Z,17
2024-05-09T22:02:46.241Z,19
2024-05-09T22:07:58.813Z,18
2024-05-09T22:13:11.524Z,27
2024-05-09T22:18:24.167Z,24
2024-05-09T22:23:36.753Z,22
2024-05-09T22:28:49.374Z,20
2024-05-09T22:34:02.094Z,21
2024-05-09T22:39:13.543Z,21
2024-05-09T22:44:26.285Z,18
2024-05-09T22:49:38.845Z,16
2024-05-09T22:54:51.269Z,14
2024-05-09T23:00:04.021Z,13
2024-05-09T23:05:16.756Z,12
2024-05-09T23:10:29.393Z,14
2024-05-09T23:15:42.080Z,12
2024-05-09T23:20:54.480Z,12
2024-05-09T23:26:07.116Z,12
2024-05-09T23:31:19.469Z,15
2024-05-09T23:36:32.277Z,14
2024-05-09T23:41:44.873Z,12
2024-05-09T23:46:57.351Z,11
2024-05-09T23:52:09.932Z,10
2024-05-09T23:57:22.539Z,9
